sensor_id;sensor_type;location;lat;lon;timestamp;P1;durP1;ratioP1;P2;durP2;ratioP2
58338;SDS011;48278;52.704;6.536;2023-01-09T00:00:46;14.75;;;3.33;;
58338;SDS011;48278;52.704;6.536;2023-01-09T00:03:12;22.00;;;4.10;;
58338;SDS011;48278;52.704;6.536;2023-01-09T00:05:38;16.45;;;3.78;;
58338;SDS011;48278;52.704;6.536;2023-01-09T00:08:04;16.52;;;3.80;;
58338;SDS011;48278;52.704;6.536;2023-01-09T00:10:30;13.15;;;4.22;;
58338;SDS011;48278;52.704;6.536;2023-01-09T00:12:55;15.23;;;3.60;;
58338;SDS011;48278;52.704;6.536;2023-01-09T00:15:21;21.35;;;4.35;;
58338;SDS011;48278;52.704;6.536;2023-01-09T00:17:47;17.58;;;4.22;;
58338;SDS011;48278;52.704;6.536;2023-01-09T00:20:13;16.80;;;5.50;;
58338;SDS011;48278;52.704;6.536;2023-01-09T00:22:39;16.17;;;3.40;;
58338;SDS011;48278;52.704;6.536;2023-01-09T00:25:05;13.63;;;3.45;;
58338;SDS011;48278;52.704;6.536;2023-01-09T00:27:34;9.82;;;3.08;;
58338;SDS011;48278;52.704;6.536;2023-01-09T00:30:00;11.15;;;1.75;;
58338;SDS011;48278;52.704;6.536;2023-01-09T00:32:27;5.07;;;1.23;;
58338;SDS011;48278;52.704;6.536;2023-01-09T00:34:53;7.55;;;0.70;;
58338;SDS011;48278;52.704;6.536;2023-01-09T00:37:20;6.10;;;0.80;;
58338;SDS011;48278;52.704;6.536;2023-01-09T00:39:46;5.13;;;0.80;;
58338;SDS011;48278;52.704;6.536;2023-01-09T00:42:13;4.57;;;0.93;;
58338;SDS011;48278;52.704;6.536;2023-01-09T00:44:44;4.32;;;1.10;;
58338;SDS011;48278;52.704;6.536;2023-01-09T00:47:15;6.22;;;1.67;;
58338;SDS011;48278;52.704;6.536;2023-01-09T00:49:45;6.80;;;1.85;;
58338;SDS011;48278;52.704;6.536;2023-01-09T00:54:39;8.00;;;2.28;;
58338;SDS011;48278;52.704;6.536;2023-01-09T00:57:06;6.53;;;2.58;;
58338;SDS011;48278;52.704;6.536;2023-01-09T00:59:35;11.73;;;2.40;;
58338;SDS011;48278;52.704;6.536;2023-01-09T01:02:00;7.65;;;2.42;;
58338;SDS011;48278;52.704;6.536;2023-01-09T01:04:26;6.30;;;1.65;;
58338;SDS011;48278;52.704;6.536;2023-01-09T01:07:11;8.10;;;2.03;;
58338;SDS011;48278;52.704;6.536;2023-01-09T01:09:55;5.40;;;1.90;;
58338;SDS011;48278;52.704;6.536;2023-01-09T01:12:20;8.70;;;2.20;;
58338;SDS011;48278;52.704;6.536;2023-01-09T01:14:46;7.70;;;1.98;;
58338;SDS011;48278;52.704;6.536;2023-01-09T01:17:12;10.38;;;2.67;;
58338;SDS011;48278;52.704;6.536;2023-01-09T01:19:38;10.60;;;2.67;;
58338;SDS011;48278;52.704;6.536;2023-01-09T01:22:04;19.23;;;3.93;;
58338;SDS011;48278;52.704;6.536;2023-01-09T01:24:30;9.10;;;2.50;;
58338;SDS011;48278;52.704;6.536;2023-01-09T01:26:56;13.25;;;3.47;;
58338;SDS011;48278;52.704;6.536;2023-01-09T01:29:21;10.25;;;2.60;;
58338;SDS011;48278;52.704;6.536;2023-01-09T01:31:47;11.00;;;2.83;;
58338;SDS011;48278;52.704;6.536;2023-01-09T01:34:13;8.60;;;2.80;;
58338;SDS011;48278;52.704;6.536;2023-01-09T01:36:38;10.95;;;2.72;;
58338;SDS011;48278;52.704;6.536;2023-01-09T01:39:04;10.30;;;2.95;;
58338;SDS011;48278;52.704;6.536;2023-01-09T01:41:30;15.38;;;3.08;;
58338;SDS011;48278;52.704;6.536;2023-01-09T01:43:57;8.70;;;2.58;;
58338;SDS011;48278;52.704;6.536;2023-01-09T01:46:24;8.27;;;2.17;;
58338;SDS011;48278;52.704;6.536;2023-01-09T01:49:07;11.07;;;2.58;;
58338;SDS011;48278;52.704;6.536;2023-01-09T01:51:37;9.57;;;2.60;;
58338;SDS011;48278;52.704;6.536;2023-01-09T01:54:09;7.25;;;2.20;;
58338;SDS011;48278;52.704;6.536;2023-01-09T01:56:44;8.02;;;2.60;;
58338;SDS011;48278;52.704;6.536;2023-01-09T02:01:44;9.23;;;2.45;;
58338;SDS011;48278;52.704;6.536;2023-01-09T02:04:13;10.27;;;2.53;;
58338;SDS011;48278;52.704;6.536;2023-01-09T02:06:40;10.45;;;2.80;;
58338;SDS011;48278;52.704;6.536;2023-01-09T02:09:07;10.13;;;1.98;;
58338;SDS011;48278;52.704;6.536;2023-01-09T02:11:42;11.63;;;2.05;;
58338;SDS011;48278;52.704;6.536;2023-01-09T02:14:12;14.43;;;2.88;;
58338;SDS011;48278;52.704;6.536;2023-01-09T02:22:29;11.88;;;2.28;;
58338;SDS011;48278;52.704;6.536;2023-01-09T02:27:59;11.35;;;2.58;;
58338;SDS011;48278;52.704;6.536;2023-01-09T02:30:56;10.55;;;2.55;;
58338;SDS011;48278;52.704;6.536;2023-01-09T02:38:40;15.18;;;2.90;;
58338;SDS011;48278;52.704;6.536;2023-01-09T02:43:43;16.55;;;3.10;;
58338;SDS011;48278;52.704;6.536;2023-01-09T02:46:19;17.02;;;3.60;;
58338;SDS011;48278;52.704;6.536;2023-01-09T02:48:48;19.33;;;3.10;;
58338;SDS011;48278;52.704;6.536;2023-01-09T02:51:30;8.02;;;2.53;;
58338;SDS011;48278;52.704;6.536;2023-01-09T02:54:20;12.38;;;3.47;;
58338;SDS011;48278;52.704;6.536;2023-01-09T02:59:31;13.93;;;3.03;;
58338;SDS011;48278;52.704;6.536;2023-01-09T03:02:08;15.05;;;3.35;;
58338;SDS011;48278;52.704;6.536;2023-01-09T03:04:44;17.83;;;3.33;;
58338;SDS011;48278;52.704;6.536;2023-01-09T03:09:49;13.73;;;3.88;;
58338;SDS011;48278;52.704;6.536;2023-01-09T03:12:21;13.68;;;3.70;;
58338;SDS011;48278;52.704;6.536;2023-01-09T03:14:49;19.73;;;3.85;;
58338;SDS011;48278;52.704;6.536;2023-01-09T03:17:22;16.98;;;4.20;;
58338;SDS011;48278;52.704;6.536;2023-01-09T03:19:53;14.45;;;3.97;;
58338;SDS011;48278;52.704;6.536;2023-01-09T03:22:21;16.15;;;4.45;;
58338;SDS011;48278;52.704;6.536;2023-01-09T03:24:47;21.95;;;5.35;;
58338;SDS011;48278;52.704;6.536;2023-01-09T03:27:13;22.17;;;5.53;;
58338;SDS011;48278;52.704;6.536;2023-01-09T03:29:39;18.25;;;4.10;;
58338;SDS011;48278;52.704;6.536;2023-01-09T03:32:05;20.45;;;4.65;;
58338;SDS011;48278;52.704;6.536;2023-01-09T03:34:30;22.80;;;5.47;;
58338;SDS011;48278;52.704;6.536;2023-01-09T03:36:56;23.67;;;5.38;;
58338;SDS011;48278;52.704;6.536;2023-01-09T03:39:22;18.75;;;5.28;;
58338;SDS011;48278;52.704;6.536;2023-01-09T03:41:48;21.35;;;5.78;;
58338;SDS011;48278;52.704;6.536;2023-01-09T03:44:13;25.20;;;6.55;;
58338;SDS011;48278;52.704;6.536;2023-01-09T03:46:39;27.48;;;6.25;;
58338;SDS011;48278;52.704;6.536;2023-01-09T03:49:05;21.25;;;6.10;;
58338;SDS011;48278;52.704;6.536;2023-01-09T03:51:31;29.48;;;6.75;;
58338;SDS011;48278;52.704;6.536;2023-01-09T03:53:56;23.10;;;6.38;;
58338;SDS011;48278;52.704;6.536;2023-01-09T03:56:22;33.42;;;7.18;;
58338;SDS011;48278;52.704;6.536;2023-01-09T03:58:49;33.95;;;8.15;;
58338;SDS011;48278;52.704;6.536;2023-01-09T04:01:17;28.40;;;8.00;;
58338;SDS011;48278;52.704;6.536;2023-01-09T04:03:42;29.70;;;8.18;;
58338;SDS011;48278;52.704;6.536;2023-01-09T04:06:08;32.67;;;8.63;;
58338;SDS011;48278;52.704;6.536;2023-01-09T04:08:34;35.97;;;10.15;;
58338;SDS011;48278;52.704;6.536;2023-01-09T04:11:00;37.22;;;10.02;;
58338;SDS011;48278;52.704;6.536;2023-01-09T04:13:25;40.10;;;11.23;;
58338;SDS011;48278;52.704;6.536;2023-01-09T04:15:51;41.40;;;10.85;;
58338;SDS011;48278;52.704;6.536;2023-01-09T04:18:17;43.38;;;10.98;;
58338;SDS011;48278;52.704;6.536;2023-01-09T04:20:45;43.88;;;13.65;;
58338;SDS011;48278;52.704;6.536;2023-01-09T04:23:12;46.70;;;12.85;;
58338;SDS011;48278;52.704;6.536;2023-01-09T04:25:38;50.35;;;12.40;;
58338;SDS011;48278;52.704;6.536;2023-01-09T04:28:03;48.65;;;13.25;;
58338;SDS011;48278;52.704;6.536;2023-01-09T04:30:29;46.40;;;12.60;;
58338;SDS011;48278;52.704;6.536;2023-01-09T04:32:55;55.28;;;12.93;;
58338;SDS011;48278;52.704;6.536;2023-01-09T04:35:21;53.88;;;13.45;;
58338;SDS011;48278;52.704;6.536;2023-01-09T04:37:47;52.58;;;14.20;;
58338;SDS011;48278;52.704;6.536;2023-01-09T04:40:13;53.80;;;14.38;;
58338;SDS011;48278;52.704;6.536;2023-01-09T04:42:39;56.95;;;13.82;;
58338;SDS011;48278;52.704;6.536;2023-01-09T04:45:06;60.53;;;14.88;;
58338;SDS011;48278;52.704;6.536;2023-01-09T04:47:33;51.03;;;14.02;;
58338;SDS011;48278;52.704;6.536;2023-01-09T04:49:59;51.85;;;13.80;;
58338;SDS011;48278;52.704;6.536;2023-01-09T04:52:25;61.70;;;15.23;;
58338;SDS011;48278;52.704;6.536;2023-01-09T04:54:51;53.63;;;13.95;;
58338;SDS011;48278;52.704;6.536;2023-01-09T04:57:17;46.78;;;13.88;;
58338;SDS011;48278;52.704;6.536;2023-01-09T04:59:43;50.65;;;14.30;;
58338;SDS011;48278;52.704;6.536;2023-01-09T05:02:09;58.63;;;14.27;;
58338;SDS011;48278;52.704;6.536;2023-01-09T05:04:34;50.17;;;13.23;;
58338;SDS011;48278;52.704;6.536;2023-01-09T05:07:01;47.03;;;13.10;;
58338;SDS011;48278;52.704;6.536;2023-01-09T05:09:27;49.83;;;13.40;;
58338;SDS011;48278;52.704;6.536;2023-01-09T05:11:53;41.92;;;11.30;;
58338;SDS011;48278;52.704;6.536;2023-01-09T05:14:19;46.92;;;13.02;;
58338;SDS011;48278;52.704;6.536;2023-01-09T05:16:44;44.60;;;12.23;;
58338;SDS011;48278;52.704;6.536;2023-01-09T05:19:10;43.42;;;11.52;;
58338;SDS011;48278;52.704;6.536;2023-01-09T05:21:36;42.15;;;11.02;;
58338;SDS011;48278;52.704;6.536;2023-01-09T05:24:02;40.08;;;10.50;;
58338;SDS011;48278;52.704;6.536;2023-01-09T05:26:28;47.10;;;12.23;;
58338;SDS011;48278;52.704;6.536;2023-01-09T05:28:54;42.03;;;12.35;;
58338;SDS011;48278;52.704;6.536;2023-01-09T05:31:20;48.92;;;12.13;;
58338;SDS011;48278;52.704;6.536;2023-01-09T05:33:47;49.75;;;11.35;;
58338;SDS011;48278;52.704;6.536;2023-01-09T05:36:13;44.97;;;11.52;;
58338;SDS011;48278;52.704;6.536;2023-01-09T05:38:39;46.08;;;12.30;;
58338;SDS011;48278;52.704;6.536;2023-01-09T05:41:05;44.15;;;11.23;;
58338;SDS011;48278;52.704;6.536;2023-01-09T05:43:34;46.60;;;11.80;;
58338;SDS011;48278;52.704;6.536;2023-01-09T05:46:00;40.58;;;11.02;;
58338;SDS011;48278;52.704;6.536;2023-01-09T05:48:25;38.35;;;9.50;;
58338;SDS011;48278;52.704;6.536;2023-01-09T05:50:51;45.00;;;11.73;;
58338;SDS011;48278;52.704;6.536;2023-01-09T05:53:17;47.92;;;11.10;;
58338;SDS011;48278;52.704;6.536;2023-01-09T05:55:43;45.90;;;11.55;;
58338;SDS011;48278;52.704;6.536;2023-01-09T05:58:09;37.83;;;9.80;;
58338;SDS011;48278;52.704;6.536;2023-01-09T06:00:34;45.45;;;9.60;;
58338;SDS011;48278;52.704;6.536;2023-01-09T06:03:00;40.40;;;10.32;;
58338;SDS011;48278;52.704;6.536;2023-01-09T06:05:26;35.30;;;9.43;;
58338;SDS011;48278;52.704;6.536;2023-01-09T06:07:52;34.28;;;9.98;;
58338;SDS011;48278;52.704;6.536;2023-01-09T06:10:17;39.60;;;9.52;;
58338;SDS011;48278;52.704;6.536;2023-01-09T06:12:47;39.03;;;9.20;;
58338;SDS011;48278;52.704;6.536;2023-01-09T06:15:14;38.88;;;9.27;;
58338;SDS011;48278;52.704;6.536;2023-01-09T06:17:40;28.65;;;8.23;;
58338;SDS011;48278;52.704;6.536;2023-01-09T06:20:07;33.03;;;8.48;;
58338;SDS011;48278;52.704;6.536;2023-01-09T06:22:34;34.85;;;8.85;;
58338;SDS011;48278;52.704;6.536;2023-01-09T06:25:00;32.22;;;8.27;;
58338;SDS011;48278;52.704;6.536;2023-01-09T06:27:26;26.48;;;8.00;;
58338;SDS011;48278;52.704;6.536;2023-01-09T06:29:52;30.40;;;6.85;;
58338;SDS011;48278;52.704;6.536;2023-01-09T06:32:17;28.95;;;7.25;;
58338;SDS011;48278;52.704;6.536;2023-01-09T06:34:43;31.77;;;7.47;;
58338;SDS011;48278;52.704;6.536;2023-01-09T06:37:09;32.50;;;7.82;;
58338;SDS011;48278;52.704;6.536;2023-01-09T06:39:35;30.40;;;7.63;;
58338;SDS011;48278;52.704;6.536;2023-01-09T06:42:01;28.85;;;7.10;;
58338;SDS011;48278;52.704;6.536;2023-01-09T06:44:27;25.42;;;6.47;;
58338;SDS011;48278;52.704;6.536;2023-01-09T06:46:53;28.23;;;6.90;;
58338;SDS011;48278;52.704;6.536;2023-01-09T06:49:18;26.88;;;7.15;;
58338;SDS011;48278;52.704;6.536;2023-01-09T06:51:48;30.70;;;6.28;;
58338;SDS011;48278;52.704;6.536;2023-01-09T06:54:17;20.60;;;6.30;;
58338;SDS011;48278;52.704;6.536;2023-01-09T06:56:43;30.25;;;6.78;;
58338;SDS011;48278;52.704;6.536;2023-01-09T06:59:10;25.67;;;6.55;;
58338;SDS011;48278;52.704;6.536;2023-01-09T07:01:36;30.33;;;7.40;;
58338;SDS011;48278;52.704;6.536;2023-01-09T07:04:04;29.77;;;7.72;;
58338;SDS011;48278;52.704;6.536;2023-01-09T07:06:31;27.17;;;6.82;;
58338;SDS011;48278;52.704;6.536;2023-01-09T07:08:57;34.38;;;7.05;;
58338;SDS011;48278;52.704;6.536;2023-01-09T07:11:22;25.08;;;6.85;;
58338;SDS011;48278;52.704;6.536;2023-01-09T07:13:48;28.05;;;7.35;;
58338;SDS011;48278;52.704;6.536;2023-01-09T07:16:14;30.58;;;7.28;;
58338;SDS011;48278;52.704;6.536;2023-01-09T07:18:40;27.98;;;6.40;;
58338;SDS011;48278;52.704;6.536;2023-01-09T07:21:05;27.23;;;7.40;;
58338;SDS011;48278;52.704;6.536;2023-01-09T07:23:31;24.38;;;5.68;;
58338;SDS011;48278;52.704;6.536;2023-01-09T07:25:58;30.38;;;6.35;;
58338;SDS011;48278;52.704;6.536;2023-01-09T07:28:24;33.95;;;6.35;;
58338;SDS011;48278;52.704;6.536;2023-01-09T07:30:50;26.70;;;5.47;;
58338;SDS011;48278;52.704;6.536;2023-01-09T07:33:16;26.38;;;6.07;;
58338;SDS011;48278;52.704;6.536;2023-01-09T07:35:41;22.77;;;5.70;;
58338;SDS011;48278;52.704;6.536;2023-01-09T07:38:07;23.10;;;5.88;;
58338;SDS011;48278;52.704;6.536;2023-01-09T07:40:33;23.38;;;5.55;;
58338;SDS011;48278;52.704;6.536;2023-01-09T07:42:59;21.90;;;5.25;;
58338;SDS011;48278;52.704;6.536;2023-01-09T07:45:24;28.45;;;5.45;;
58338;SDS011;48278;52.704;6.536;2023-01-09T07:47:50;16.60;;;5.80;;
58338;SDS011;48278;52.704;6.536;2023-01-09T07:50:16;22.73;;;5.78;;
58338;SDS011;48278;52.704;6.536;2023-01-09T07:52:45;24.80;;;6.20;;
58338;SDS011;48278;52.704;6.536;2023-01-09T07:55:11;21.80;;;5.32;;
58338;SDS011;48278;52.704;6.536;2023-01-09T07:57:38;24.08;;;5.47;;
58338;SDS011;48278;52.704;6.536;2023-01-09T08:00:04;21.55;;;5.20;;
58338;SDS011;48278;52.704;6.536;2023-01-09T08:02:32;24.15;;;5.13;;
58338;SDS011;48278;52.704;6.536;2023-01-09T08:04:58;36.40;;;6.70;;
58338;SDS011;48278;52.704;6.536;2023-01-09T08:07:23;25.20;;;4.57;;
58338;SDS011;48278;52.704;6.536;2023-01-09T08:09:49;32.95;;;6.25;;
58338;SDS011;48278;52.704;6.536;2023-01-09T08:12:15;27.38;;;7.43;;
58338;SDS011;48278;52.704;6.536;2023-01-09T08:14:40;31.45;;;7.50;;
58338;SDS011;48278;52.704;6.536;2023-01-09T08:17:06;29.65;;;6.65;;
58338;SDS011;48278;52.704;6.536;2023-01-09T08:19:33;26.00;;;5.75;;
58338;SDS011;48278;52.704;6.536;2023-01-09T08:21:59;22.30;;;5.53;;
58338;SDS011;48278;52.704;6.536;2023-01-09T08:24:24;23.45;;;5.25;;
58338;SDS011;48278;52.704;6.536;2023-01-09T08:26:50;24.42;;;5.47;;
58338;SDS011;48278;52.704;6.536;2023-01-09T08:29:16;22.75;;;6.07;;
58338;SDS011;48278;52.704;6.536;2023-01-09T08:31:42;21.70;;;5.18;;
58338;SDS011;48278;52.704;6.536;2023-01-09T08:34:08;29.67;;;5.47;;
58338;SDS011;48278;52.704;6.536;2023-01-09T08:36:33;25.42;;;5.07;;
58338;SDS011;48278;52.704;6.536;2023-01-09T08:38:59;22.63;;;5.40;;
58338;SDS011;48278;52.704;6.536;2023-01-09T08:41:25;21.50;;;5.28;;
58338;SDS011;48278;52.704;6.536;2023-01-09T08:44:09;23.33;;;5.25;;
58338;SDS011;48278;52.704;6.536;2023-01-09T08:46:53;22.80;;;5.10;;
58338;SDS011;48278;52.704;6.536;2023-01-09T08:49:35;25.15;;;5.50;;
58338;SDS011;48278;52.704;6.536;2023-01-09T08:52:03;29.17;;;5.90;;
58338;SDS011;48278;52.704;6.536;2023-01-09T08:54:30;24.73;;;5.63;;
58338;SDS011;48278;52.704;6.536;2023-01-09T08:56:56;26.17;;;5.13;;
58338;SDS011;48278;52.704;6.536;2023-01-09T08:59:22;22.10;;;4.90;;
58338;SDS011;48278;52.704;6.536;2023-01-09T09:01:48;28.33;;;5.13;;
58338;SDS011;48278;52.704;6.536;2023-01-09T09:04:13;29.77;;;5.28;;
58338;SDS011;48278;52.704;6.536;2023-01-09T09:06:39;21.70;;;4.65;;
58338;SDS011;48278;52.704;6.536;2023-01-09T09:09:05;21.30;;;4.90;;
58338;SDS011;48278;52.704;6.536;2023-01-09T09:11:31;24.50;;;5.72;;
58338;SDS011;48278;52.704;6.536;2023-01-09T09:13:58;23.95;;;4.85;;
58338;SDS011;48278;52.704;6.536;2023-01-09T09:16:24;25.30;;;4.90;;
58338;SDS011;48278;52.704;6.536;2023-01-09T09:18:50;21.37;;;5.13;;
58338;SDS011;48278;52.704;6.536;2023-01-09T09:21:16;25.98;;;5.47;;
58338;SDS011;48278;52.704;6.536;2023-01-09T09:23:42;22.20;;;5.57;;
58338;SDS011;48278;52.704;6.536;2023-01-09T09:26:10;26.98;;;5.28;;
58338;SDS011;48278;52.704;6.536;2023-01-09T09:28:36;18.02;;;4.95;;
58338;SDS011;48278;52.704;6.536;2023-01-09T09:31:05;20.05;;;5.30;;
58338;SDS011;48278;52.704;6.536;2023-01-09T09:33:31;21.27;;;4.80;;
58338;SDS011;48278;52.704;6.536;2023-01-09T09:35:57;21.05;;;5.13;;
58338;SDS011;48278;52.704;6.536;2023-01-09T09:38:23;21.20;;;5.10;;
58338;SDS011;48278;52.704;6.536;2023-01-09T09:44:27;18.00;;;5.15;;
58338;SDS011;48278;52.704;6.536;2023-01-09T09:55:51;16.08;;;4.93;;
58338;SDS011;48278;52.704;6.536;2023-01-09T10:00:50;21.17;;;3.83;;
58338;SDS011;48278;52.704;6.536;2023-01-09T10:14:23;21.52;;;4.45;;
58338;SDS011;48278;52.704;6.536;2023-01-09T10:25:00;18.10;;;4.72;;
58338;SDS011;48278;52.704;6.536;2023-01-09T10:30:49;17.35;;;4.15;;
58338;SDS011;48278;52.704;6.536;2023-01-09T10:33:25;18.63;;;6.00;;
58338;SDS011;48278;52.704;6.536;2023-01-09T10:38:38;25.55;;;5.55;;
58338;SDS011;48278;52.704;6.536;2023-01-09T10:41:09;17.77;;;5.32;;
58338;SDS011;48278;52.704;6.536;2023-01-09T10:43:45;22.75;;;5.55;;
58338;SDS011;48278;52.704;6.536;2023-01-09T10:46:27;24.50;;;5.50;;
58338;SDS011;48278;52.704;6.536;2023-01-09T10:48:59;20.20;;;5.97;;
58338;SDS011;48278;52.704;6.536;2023-01-09T10:51:34;17.75;;;6.07;;
58338;SDS011;48278;52.704;6.536;2023-01-09T10:54:14;17.85;;;5.25;;
58338;SDS011;48278;52.704;6.536;2023-01-09T10:57:03;21.75;;;6.47;;
58338;SDS011;48278;52.704;6.536;2023-01-09T10:59:40;15.45;;;5.35;;
58338;SDS011;48278;52.704;6.536;2023-01-09T11:02:29;19.48;;;6.07;;
58338;SDS011;48278;52.704;6.536;2023-01-09T11:04:57;21.50;;;6.82;;
58338;SDS011;48278;52.704;6.536;2023-01-09T11:07:24;25.48;;;6.60;;
58338;SDS011;48278;52.704;6.536;2023-01-09T11:09:53;26.15;;;6.78;;
58338;SDS011;48278;52.704;6.536;2023-01-09T11:12:27;21.17;;;6.00;;
58338;SDS011;48278;52.704;6.536;2023-01-09T11:14:54;21.42;;;7.25;;
58338;SDS011;48278;52.704;6.536;2023-01-09T11:17:21;24.92;;;8.43;;
58338;SDS011;48278;52.704;6.536;2023-01-09T11:20:00;25.38;;;7.47;;
58338;SDS011;48278;52.704;6.536;2023-01-09T11:22:41;29.05;;;7.65;;
58338;SDS011;48278;52.704;6.536;2023-01-09T11:25:18;21.75;;;7.18;;
58338;SDS011;48278;52.704;6.536;2023-01-09T11:30:28;27.80;;;8.23;;
58338;SDS011;48278;52.704;6.536;2023-01-09T11:32:55;27.58;;;8.18;;
58338;SDS011;48278;52.704;6.536;2023-01-09T11:35:23;26.13;;;8.40;;
58338;SDS011;48278;52.704;6.536;2023-01-09T11:38:43;31.95;;;9.45;;
58338;SDS011;48278;52.704;6.536;2023-01-09T11:40:49;28.92;;;8.00;;
58338;SDS011;48278;52.704;6.536;2023-01-09T11:45:53;36.67;;;9.02;;
58338;SDS011;48278;52.704;6.536;2023-01-09T11:48:28;29.50;;;8.65;;
58338;SDS011;48278;52.704;6.536;2023-01-09T11:50:57;33.88;;;9.00;;
58338;SDS011;48278;52.704;6.536;2023-01-09T11:53:24;36.22;;;10.38;;
58338;SDS011;48278;52.704;6.536;2023-01-09T11:55:58;36.03;;;10.32;;
58338;SDS011;48278;52.704;6.536;2023-01-09T11:58:32;39.45;;;11.18;;
58338;SDS011;48278;52.704;6.536;2023-01-09T12:06:21;35.00;;;10.43;;
58338;SDS011;48278;52.704;6.536;2023-01-09T12:11:34;42.42;;;11.85;;
58338;SDS011;48278;52.704;6.536;2023-01-09T12:20:06;43.58;;;11.70;;
58338;SDS011;48278;52.704;6.536;2023-01-09T12:22:53;40.13;;;11.80;;
58338;SDS011;48278;52.704;6.536;2023-01-09T12:36:13;40.70;;;12.30;;
58338;SDS011;48278;52.704;6.536;2023-01-09T12:38:55;39.13;;;12.82;;
58338;SDS011;48278;52.704;6.536;2023-01-09T12:47:30;41.25;;;12.15;;
58338;SDS011;48278;52.704;6.536;2023-01-09T12:55:39;41.03;;;12.10;;
58338;SDS011;48278;52.704;6.536;2023-01-09T12:58:11;37.55;;;11.82;;
58338;SDS011;48278;52.704;6.536;2023-01-09T13:00:52;45.75;;;12.05;;
58338;SDS011;48278;52.704;6.536;2023-01-09T13:03:25;43.30;;;12.02;;
58338;SDS011;48278;52.704;6.536;2023-01-09T13:06:09;40.58;;;12.20;;
58338;SDS011;48278;52.704;6.536;2023-01-09T13:08:40;36.13;;;10.93;;
58338;SDS011;48278;52.704;6.536;2023-01-09T13:16:21;35.20;;;10.73;;
58338;SDS011;48278;52.704;6.536;2023-01-09T13:19:06;36.53;;;10.40;;
58338;SDS011;48278;52.704;6.536;2023-01-09T13:21:36;37.90;;;11.60;;
58338;SDS011;48278;52.704;6.536;2023-01-09T13:26:38;25.80;;;7.05;;
58338;SDS011;48278;52.704;6.536;2023-01-09T13:29:31;33.05;;;8.25;;
58338;SDS011;48278;52.704;6.536;2023-01-09T13:34:49;34.38;;;7.82;;
58338;SDS011;48278;52.704;6.536;2023-01-09T13:40:00;35.90;;;7.43;;
58338;SDS011;48278;52.704;6.536;2023-01-09T13:42:31;31.75;;;7.53;;
58338;SDS011;48278;52.704;6.536;2023-01-09T13:45:23;32.30;;;6.82;;
58338;SDS011;48278;52.704;6.536;2023-01-09T13:50:35;29.75;;;6.32;;
58338;SDS011;48278;52.704;6.536;2023-01-09T13:58:27;29.25;;;4.50;;
58338;SDS011;48278;52.704;6.536;2023-01-09T14:00:58;18.52;;;3.17;;
58338;SDS011;48278;52.704;6.536;2023-01-09T14:03:37;18.65;;;4.20;;
58338;SDS011;48278;52.704;6.536;2023-01-09T14:06:04;28.80;;;4.70;;
58338;SDS011;48278;52.704;6.536;2023-01-09T14:08:36;24.02;;;3.80;;
58338;SDS011;48278;52.704;6.536;2023-01-09T14:11:02;28.35;;;3.90;;
58338;SDS011;48278;52.704;6.536;2023-01-09T14:13:37;27.33;;;4.28;;
58338;SDS011;48278;52.704;6.536;2023-01-09T14:19:03;22.10;;;3.17;;
58338;SDS011;48278;52.704;6.536;2023-01-09T14:21:42;23.15;;;3.42;;
58338;SDS011;48278;52.704;6.536;2023-01-09T14:24:19;31.00;;;3.70;;
58338;SDS011;48278;52.704;6.536;2023-01-09T14:26:52;32.88;;;3.72;;
58338;SDS011;48278;52.704;6.536;2023-01-09T14:29:53;24.42;;;3.38;;
58338;SDS011;48278;52.704;6.536;2023-01-09T14:37:21;26.30;;;3.80;;
58338;SDS011;48278;52.704;6.536;2023-01-09T14:39:49;37.78;;;5.05;;
58338;SDS011;48278;52.704;6.536;2023-01-09T14:42:17;24.23;;;3.08;;
58338;SDS011;48278;52.704;6.536;2023-01-09T14:50:05;26.65;;;3.60;;
58338;SDS011;48278;52.704;6.536;2023-01-09T14:52:44;29.13;;;3.92;;
58338;SDS011;48278;52.704;6.536;2023-01-09T14:55:25;19.10;;;3.97;;
58338;SDS011;48278;52.704;6.536;2023-01-09T15:03:43;25.30;;;4.13;;
58338;SDS011;48278;52.704;6.536;2023-01-09T15:09:24;31.52;;;4.93;;
58338;SDS011;48278;52.704;6.536;2023-01-09T15:11:56;27.48;;;4.45;;
58338;SDS011;48278;52.704;6.536;2023-01-09T15:14:31;30.98;;;5.93;;
58338;SDS011;48278;52.704;6.536;2023-01-09T15:17:04;23.33;;;4.17;;
58338;SDS011;48278;52.704;6.536;2023-01-09T15:19:31;21.33;;;4.70;;
58338;SDS011;48278;52.704;6.536;2023-01-09T15:24:31;25.40;;;4.93;;
58338;SDS011;48278;52.704;6.536;2023-01-09T15:27:02;34.42;;;5.75;;
58338;SDS011;48278;52.704;6.536;2023-01-09T15:29:35;24.23;;;4.72;;
58338;SDS011;48278;52.704;6.536;2023-01-09T15:32:08;32.38;;;5.82;;
58338;SDS011;48278;52.704;6.536;2023-01-09T15:34:42;25.00;;;5.40;;
58338;SDS011;48278;52.704;6.536;2023-01-09T15:37:19;27.05;;;4.70;;
58338;SDS011;48278;52.704;6.536;2023-01-09T15:39:58;31.73;;;5.63;;
58338;SDS011;48278;52.704;6.536;2023-01-09T15:42:26;28.80;;;5.47;;
58338;SDS011;48278;52.704;6.536;2023-01-09T15:45:14;22.90;;;4.72;;
58338;SDS011;48278;52.704;6.536;2023-01-09T15:47:42;27.02;;;4.57;;
58338;SDS011;48278;52.704;6.536;2023-01-09T15:50:12;30.35;;;4.28;;
58338;SDS011;48278;52.704;6.536;2023-01-09T15:52:42;22.77;;;4.00;;
58338;SDS011;48278;52.704;6.536;2023-01-09T15:55:54;18.17;;;3.87;;
58338;SDS011;48278;52.704;6.536;2023-01-09T15:57:59;30.00;;;5.38;;
58338;SDS011;48278;52.704;6.536;2023-01-09T16:02:54;24.88;;;4.07;;
58338;SDS011;48278;52.704;6.536;2023-01-09T16:05:42;20.88;;;4.57;;
58338;SDS011;48278;52.704;6.536;2023-01-09T16:08:21;35.58;;;4.93;;
58338;SDS011;48278;52.704;6.536;2023-01-09T16:10:54;30.55;;;5.20;;
58338;SDS011;48278;52.704;6.536;2023-01-09T16:13:24;30.83;;;5.25;;
58338;SDS011;48278;52.704;6.536;2023-01-09T16:15:53;21.30;;;4.10;;
58338;SDS011;48278;52.704;6.536;2023-01-09T16:18:21;36.00;;;5.85;;
58338;SDS011;48278;52.704;6.536;2023-01-09T16:21:18;25.85;;;5.43;;
58338;SDS011;48278;52.704;6.536;2023-01-09T16:24:18;27.08;;;5.25;;
58338;SDS011;48278;52.704;6.536;2023-01-09T16:26:42;34.90;;;5.45;;
58338;SDS011;48278;52.704;6.536;2023-01-09T16:32:19;36.45;;;5.97;;
58338;SDS011;48278;52.704;6.536;2023-01-09T16:35:06;33.75;;;5.00;;
58338;SDS011;48278;52.704;6.536;2023-01-09T16:37:40;37.50;;;5.95;;
58338;SDS011;48278;52.704;6.536;2023-01-09T16:42:41;37.75;;;7.50;;
58338;SDS011;48278;52.704;6.536;2023-01-09T16:45:34;34.40;;;5.70;;
58338;SDS011;48278;52.704;6.536;2023-01-09T16:48:07;37.55;;;7.00;;
58338;SDS011;48278;52.704;6.536;2023-01-09T16:50:36;44.90;;;7.13;;
58338;SDS011;48278;52.704;6.536;2023-01-09T16:53:08;29.33;;;5.28;;
58338;SDS011;48278;52.704;6.536;2023-01-09T16:55:39;35.28;;;5.25;;
58338;SDS011;48278;52.704;6.536;2023-01-09T16:58:04;30.13;;;5.15;;
58338;SDS011;48278;52.704;6.536;2023-01-09T17:00:30;38.17;;;7.55;;
58338;SDS011;48278;52.704;6.536;2023-01-09T17:02:56;30.10;;;4.50;;
58338;SDS011;48278;52.704;6.536;2023-01-09T17:05:22;38.72;;;5.10;;
58338;SDS011;48278;52.704;6.536;2023-01-09T17:07:48;38.90;;;7.57;;
58338;SDS011;48278;52.704;6.536;2023-01-09T17:10:19;26.35;;;4.10;;
58338;SDS011;48278;52.704;6.536;2023-01-09T17:12:46;28.00;;;4.43;;
58338;SDS011;48278;52.704;6.536;2023-01-09T17:15:13;37.05;;;4.65;;
58338;SDS011;48278;52.704;6.536;2023-01-09T17:17:38;36.17;;;4.45;;
58338;SDS011;48278;52.704;6.536;2023-01-09T17:20:12;40.97;;;3.20;;
58338;SDS011;48278;52.704;6.536;2023-01-09T17:22:39;33.33;;;4.20;;
58338;SDS011;48278;52.704;6.536;2023-01-09T17:25:05;29.00;;;3.95;;
58338;SDS011;48278;52.704;6.536;2023-01-09T17:27:49;31.02;;;4.03;;
58338;SDS011;48278;52.704;6.536;2023-01-09T17:30:33;33.13;;;3.92;;